createdAt,value
2022-12-17T00:00:30.358Z,29.52
2022-12-17T00:02:57.965Z,35.25
2022-12-17T00:05:24.577Z,33.50
2022-12-17T00:07:56.570Z,26.20
2022-12-17T00:10:24.565Z,27.95
2022-12-17T00:12:51.208Z,32.50
2022-12-17T00:15:19.538Z,30.58
2022-12-17T00:17:46.156Z,28.80
2022-12-17T00:20:12.791Z,34.80
2022-12-17T00:22:39.388Z,30.52
2022-12-17T00:25:06.442Z,33.88
2022-12-17T00:27:34.477Z,30.02
2022-12-17T00:30:01.068Z,30.30
2022-12-17T00:32:27.660Z,33.55
2022-12-17T00:34:54.409Z,32.20
2022-12-17T00:37:23.602Z,33.75
2022-12-17T00:39:52.519Z,29.88
2022-12-17T00:42:22.736Z,32.63
2022-12-17T00:44:50.765Z,34.20
2022-12-17T00:47:17.406Z,28.30
2022-12-17T00:49:44.334Z,27.85
2022-12-17T00:52:11.041Z,29.92
2022-12-17T00:54:37.617Z,29.70
2022-12-17T00:57:04.545Z,32.50
2022-12-17T00:59:31.107Z,29.38
2022-12-17T01:01:59.218Z,32.05
2022-12-17T01:04:26.003Z,31.67
2022-12-17T01:06:52.652Z,32.93
2022-12-17T01:09:20.169Z,30.15
2022-12-17T01:11:46.908Z,32.65
2022-12-17T01:14:14.434Z,29.30
2022-12-17T01:16:41.211Z,33.35
2022-12-17T01:19:09.217Z,32.27
2022-12-17T01:21:35.857Z,34.35
2022-12-17T01:24:02.442Z,31.25
2022-12-17T01:26:29.017Z,34.67
2022-12-17T01:28:56.914Z,28.73
2022-12-17T01:31:23.596Z,34.43
2022-12-17T01:33:50.238Z,31.35
2022-12-17T01:36:18.217Z,31.38
2022-12-17T01:38:44.851Z,31.42
2022-12-17T01:41:11.465Z,31.38
2022-12-17T01:43:39.042Z,35.07
2022-12-17T01:46:05.823Z,30.17
2022-12-17T01:48:38.184Z,31.85
2022-12-17T01:51:05.253Z,26.13
2022-12-17T01:53:37.020Z,33.63
2022-12-17T01:56:05.064Z,27.73
2022-12-17T01:58:32.047Z,29.20
2022-12-17T02:00:58.822Z,24.98
2022-12-17T02:03:25.603Z,28.55
2022-12-17T02:06:00.970Z,31.25
2022-12-17T02:08:35.761Z,26.17
2022-12-17T02:11:11.379Z,28.15
2022-12-17T02:13:42.644Z,28.00
2022-12-17T02:16:14.098Z,27.10
2022-12-17T02:18:47.600Z,27.58
2022-12-17T02:21:14.202Z,27.07
2022-12-17T02:23:53.368Z,29.50
2022-12-17T02:26:36.149Z,29.95
2022-12-17T02:29:05.058Z,28.02
2022-12-17T02:31:32.919Z,30.00
2022-12-17T02:33:59.881Z,28.37
2022-12-17T02:36:26.459Z,25.80
2022-12-17T02:38:53.092Z,29.20
2022-12-17T02:41:28.038Z,29.02
2022-12-17T02:43:56.965Z,32.10
2022-12-17T02:46:23.746Z,30.27
2022-12-17T02:48:50.491Z,27.05
2022-12-17T02:51:17.528Z,29.35
2022-12-17T02:53:46.026Z,27.20
2022-12-17T02:56:12.672Z,26.42
2022-12-17T02:58:39.246Z,31.93
2022-12-17T03:01:07.635Z,28.30
2022-12-17T03:03:34.731Z,26.55
2022-12-17T03:06:01.591Z,28.00
2022-12-17T03:08:28.234Z,24.73
2022-12-17T03:10:54.835Z,24.90
2022-12-17T03:13:23.313Z,23.40
2022-12-17T03:15:49.924Z,27.35
2022-12-17T03:18:17.900Z,24.70
2022-12-17T03:20:44.561Z,30.63
2022-12-17T03:23:11.884Z,23.93
2022-12-17T03:25:38.528Z,23.20
2022-12-17T03:28:05.782Z,23.17
2022-12-17T03:30:35.999Z,29.88
2022-12-17T03:33:03.716Z,26.65
2022-12-17T03:35:31.716Z,27.47
2022-12-17T03:37:58.338Z,24.98
2022-12-17T03:40:24.933Z,31.50
2022-12-17T03:42:51.552Z,25.63
2022-12-17T03:45:18.207Z,30.80
2022-12-17T03:47:45.042Z,27.83
2022-12-17T03:50:11.748Z,27.77
2022-12-17T03:52:39.705Z,25.23
2022-12-17T03:55:07.077Z,29.45
2022-12-17T03:57:33.634Z,25.88
2022-12-17T04:00:00.263Z,28.37
2022-12-17T04:02:27.030Z,25.80
2022-12-17T04:04:53.812Z,24.30
2022-12-17T04:07:20.408Z,29.10
2022-12-17T04:09:48.412Z,27.38
2022-12-17T04:12:14.990Z,26.20
2022-12-17T04:14:41.583Z,28.77
2022-12-17T04:17:08.245Z,32.30
2022-12-17T04:19:34.874Z,23.92
2022-12-17T04:22:01.499Z,27.05
2022-12-17T04:24:28.125Z,27.07
2022-12-17T04:26:56.597Z,30.48
2022-12-17T04:29:23.293Z,24.85
2022-12-17T04:31:49.908Z,33.50
2022-12-17T04:34:16.561Z,28.73
2022-12-17T04:36:43.220Z,29.83
2022-12-17T04:39:09.839Z,26.80
2022-12-17T04:41:36.460Z,34.30
2022-12-17T04:44:04.711Z,26.63
2022-12-17T04:46:31.374Z,26.02
2022-12-17T04:48:58.062Z,28.53
2022-12-17T04:51:24.755Z,29.30
2022-12-17T04:53:51.334Z,28.90
2022-12-17T04:56:18.082Z,26.35
2022-12-17T04:58:44.669Z,27.80
2022-12-17T05:01:12.706Z,28.07
2022-12-17T05:03:40.128Z,23.67
2022-12-17T05:06:08.400Z,27.25
2022-12-17T05:08:39.750Z,24.15
2022-12-17T05:11:08.196Z,22.67
2022-12-17T05:13:35.223Z,23.13
2022-12-17T05:16:02.120Z,27.20
2022-12-17T05:18:30.344Z,31.83
2022-12-17T05:20:56.948Z,30.05
2022-12-17T05:23:23.499Z,25.70
2022-12-17T05:25:59.312Z,24.37
2022-12-17T05:28:25.882Z,26.20
2022-12-17T05:30:57.540Z,25.40
2022-12-17T05:33:24.174Z,21.75
2022-12-17T05:35:52.108Z,25.00
2022-12-17T05:38:19.269Z,25.67
2022-12-17T05:40:45.894Z,24.67
2022-12-17T05:43:13.069Z,21.52
2022-12-17T05:45:40.214Z,28.15
2022-12-17T05:48:06.788Z,26.45
2022-12-17T05:50:33.394Z,25.43
2022-12-17T05:53:05.727Z,26.73
2022-12-17T05:55:32.520Z,27.60
2022-12-17T05:58:03.290Z,22.45
2022-12-17T06:00:29.898Z,24.50
2022-12-17T06:02:58.517Z,23.03
2022-12-17T06:05:25.338Z,21.77
2022-12-17T06:07:52.069Z,26.98
2022-12-17T06:10:20.189Z,27.10
2022-12-17T06:12:55.129Z,25.13
2022-12-17T06:15:21.769Z,22.83
2022-12-17T06:17:52.997Z,22.90
2022-12-17T06:20:19.896Z,27.48
2022-12-17T06:22:46.455Z,24.35
2022-12-17T06:25:13.133Z,29.20
2022-12-17T06:27:41.102Z,26.07
2022-12-17T06:30:14.197Z,21.17
2022-12-17T06:32:43.622Z,23.33
2022-12-17T06:35:10.360Z,22.70
2022-12-17T06:37:37.043Z,23.40
2022-12-17T06:40:04.463Z,22.53
2022-12-17T06:42:31.108Z,27.30
2022-12-17T06:44:59.034Z,25.15
2022-12-17T06:47:25.699Z,28.92
2022-12-17T06:49:56.611Z,22.17
2022-12-17T06:52:26.242Z,25.47
2022-12-17T06:54:52.817Z,27.80
2022-12-17T06:57:19.899Z,29.77
2022-12-17T06:59:46.478Z,28.85
2022-12-17T07:02:14.570Z,25.40
2022-12-17T07:04:41.269Z,33.13
2022-12-17T07:07:07.837Z,31.20
2022-12-17T07:09:34.562Z,34.50
2022-12-17T07:12:01.291Z,31.95
2022-12-17T07:14:28.009Z,31.42
2022-12-17T07:16:54.695Z,29.17
2022-12-17T07:19:27.205Z,26.35
2022-12-17T07:21:54.434Z,32.30
2022-12-17T07:24:21.008Z,28.90
2022-12-17T07:26:47.660Z,30.52
2022-12-17T07:29:14.456Z,31.90
2022-12-17T07:31:41.113Z,25.92
2022-12-17T07:34:07.799Z,26.10
2022-12-17T07:36:35.751Z,33.22
2022-12-17T07:39:02.466Z,31.65
2022-12-17T07:41:29.051Z,36.27
2022-12-17T07:43:55.620Z,31.23
2022-12-17T07:46:22.351Z,30.23
2022-12-17T07:48:49.153Z,27.17
2022-12-17T07:51:15.721Z,30.80
2022-12-17T07:53:43.715Z,34.90
2022-12-17T07:56:10.427Z,31.73
2022-12-17T07:58:37.004Z,38.55
2022-12-17T08:01:03.794Z,39.38
2022-12-17T08:03:30.472Z,28.98
2022-12-17T08:05:57.667Z,41.00
2022-12-17T08:08:24.383Z,33.47
2022-12-17T08:10:52.418Z,33.88
2022-12-17T08:13:19.055Z,41.75
2022-12-17T08:15:46.618Z,33.30
2022-12-17T08:18:13.218Z,36.13
2022-12-17T08:20:39.812Z,36.60
2022-12-17T08:23:06.637Z,37.22
2022-12-17T08:25:33.304Z,36.05
2022-12-17T08:28:04.547Z,33.50
2022-12-17T08:30:37.324Z,36.67
2022-12-17T08:33:04.733Z,36.08
2022-12-17T08:35:31.353Z,31.95
2022-12-17T08:38:01.530Z,37.67
2022-12-17T08:40:28.314Z,38.70
2022-12-17T08:42:57.099Z,46.40
2022-12-17T08:45:25.392Z,44.15
2022-12-17T08:47:52.047Z,41.15
2022-12-17T08:50:18.785Z,41.05
2022-12-17T08:52:45.492Z,42.65
2022-12-17T08:55:12.146Z,37.73
2022-12-17T08:57:38.724Z,35.75
2022-12-17T09:00:06.565Z,35.00
2022-12-17T09:02:34.678Z,44.40
2022-12-17T09:05:01.606Z,34.22
2022-12-17T09:07:28.225Z,38.80
2022-12-17T09:09:54.805Z,37.97
2022-12-17T09:12:21.418Z,40.13
2022-12-17T09:14:48.021Z,43.17
2022-12-17T09:17:14.652Z,43.15
2022-12-17T09:19:42.686Z,40.07
2022-12-17T09:22:09.442Z,42.42
2022-12-17T09:24:36.113Z,45.55
2022-12-17T09:27:02.748Z,55.53
2022-12-17T09:29:29.369Z,42.95
2022-12-17T09:31:55.943Z,51.57
2022-12-17T09:34:22.719Z,48.92
2022-12-17T09:36:51.459Z,47.70
2022-12-17T09:39:18.394Z,44.13
2022-12-17T09:41:53.791Z,45.45
2022-12-17T09:44:26.212Z,42.23
2022-12-17T09:46:59.116Z,37.70
2022-12-17T09:49:28.064Z,47.60
2022-12-17T09:51:56.204Z,36.97
2022-12-17T09:54:29.394Z,35.75
2022-12-17T09:56:57.278Z,32.97
2022-12-17T09:59:26.894Z,32.30
2022-12-17T10:01:53.774Z,31.95
2022-12-17T10:04:25.634Z,39.33
2022-12-17T10:06:52.425Z,31.65
2022-12-17T10:09:20.685Z,36.37
2022-12-17T10:11:47.642Z,26.70
2022-12-17T10:14:18.272Z,34.05
2022-12-17T10:16:46.551Z,30.67
2022-12-17T10:19:16.449Z,36.15
2022-12-17T10:21:43.078Z,31.73
2022-12-17T10:24:15.414Z,36.33
2022-12-17T10:26:48.551Z,34.22
2022-12-17T10:29:18.121Z,31.25
2022-12-17T10:31:44.851Z,35.88
2022-12-17T10:34:15.299Z,39.60
2022-12-17T10:36:46.397Z,36.30
2022-12-17T10:39:16.499Z,41.17
2022-12-17T10:41:43.448Z,34.47
2022-12-17T10:44:25.569Z,37.35
2022-12-17T10:46:56.941Z,34.33
2022-12-17T10:49:24.748Z,36.58
2022-12-17T10:51:51.401Z,34.00
2022-12-17T10:54:24.285Z,34.28
2022-12-17T10:56:52.969Z,29.98
2022-12-17T10:59:31.570Z,30.23
2022-12-17T11:01:59.374Z,33.40
2022-12-17T11:04:28.707Z,33.97
2022-12-17T11:06:56.518Z,30.52
2022-12-17T11:09:34.549Z,29.15
2022-12-17T11:12:07.490Z,35.47
2022-12-17T11:14:50.472Z,35.45
2022-12-17T11:17:18.956Z,25.70
2022-12-17T11:19:50.760Z,34.97
2022-12-17T11:22:25.208Z,28.25
2022-12-17T11:24:59.267Z,33.30
2022-12-17T11:27:29.111Z,29.20
2022-12-17T11:29:57.214Z,29.50
2022-12-17T11:32:40.001Z,35.25
2022-12-17T11:35:14.533Z,32.75
2022-12-17T11:37:50.292Z,27.07
2022-12-17T11:40:25.046Z,25.77
2022-12-17T11:42:57.433Z,32.70
2022-12-17T11:45:32.681Z,24.67
2022-12-17T11:48:02.870Z,24.58
2022-12-17T11:50:35.601Z,24.93
2022-12-17T11:53:10.138Z,25.00
2022-12-17T11:55:42.494Z,25.23
2022-12-17T11:58:16.994Z,28.48
2022-12-17T12:00:54.804Z,28.40
2022-12-17T12:03:33.909Z,21.27
2022-12-17T12:06:02.771Z,25.15
2022-12-17T12:08:31.646Z,26.58
2022-12-17T12:11:06.003Z,24.75
2022-12-17T12:13:40.555Z,27.77
2022-12-17T12:16:15.985Z,21.17
2022-12-17T12:18:49.064Z,24.13
2022-12-17T12:21:31.585Z,25.75
2022-12-17T12:24:11.596Z,23.75
2022-12-17T12:26:44.552Z,22.92
2022-12-17T12:29:22.464Z,20.37
2022-12-17T12:31:54.985Z,19.08
2022-12-17T12:34:24.559Z,25.33
2022-12-17T12:36:53.325Z,25.95
2022-12-17T12:39:36.512Z,23.05
2022-12-17T12:42:09.133Z,21.87
2022-12-17T12:44:49.538Z,22.85
2022-12-17T12:47:24.704Z,27.30
2022-12-17T12:49:57.881Z,23.55
2022-12-17T12:52:25.898Z,24.77
2022-12-17T12:54:53.881Z,30.53
2022-12-17T12:57:33.688Z,25.77
2022-12-17T13:00:00.654Z,29.52
2022-12-17T13:02:31.384Z,28.63
2022-12-17T13:04:58.312Z,29.23
2022-12-17T13:07:27.145Z,25.17
2022-12-17T13:09:56.151Z,26.45
2022-12-17T13:12:28.143Z,25.50
2022-12-17T13:15:02.315Z,26.10
2022-12-17T13:17:34.449Z,20.52
2022-12-17T13:20:24.242Z,24.10
2022-12-17T13:22:52.681Z,20.40
2022-12-17T13:25:21.826Z,22.30
2022-12-17T13:27:49.515Z,24.90
2022-12-17T13:30:22.419Z,29.30
2022-12-17T13:32:59.824Z,31.13
2022-12-17T13:35:36.460Z,37.53
2022-12-17T13:38:11.656Z,43.35
2022-12-17T13:40:44.533Z,50.80
2022-12-17T13:43:17.331Z,37.33
2022-12-17T13:45:44.390Z,27.83
2022-12-17T13:48:21.225Z,27.55
2022-12-17T13:50:54.604Z,27.67
2022-12-17T13:53:21.324Z,30.73
2022-12-17T13:55:51.018Z,34.08
2022-12-17T13:58:22.677Z,35.53
2022-12-17T14:00:49.416Z,29.27
2022-12-17T14:03:37.170Z,25.80
2022-12-17T14:06:10.434Z,25.48
2022-12-17T14:08:38.212Z,27.52
2022-12-17T14:11:06.831Z,32.47
2022-12-17T14:13:36.697Z,31.25
2022-12-17T14:16:03.490Z,29.23
2022-12-17T14:18:31.668Z,31.77
2022-12-17T14:20:58.421Z,35.80
2022-12-17T14:23:28.780Z,35.03
2022-12-17T14:25:56.365Z,34.90
2022-12-17T14:28:29.369Z,34.95
2022-12-17T14:31:26.183Z,31.83
2022-12-17T14:34:02.864Z,37.30
2022-12-17T14:36:31.208Z,34.53
2022-12-17T14:38:59.653Z,31.45
2022-12-17T14:41:27.072Z,48.42
2022-12-17T14:43:58.270Z,53.08
2022-12-17T14:46:25.189Z,53.72
2022-12-17T14:48:55.747Z,52.97
2022-12-17T14:51:28.760Z,34.20
2022-12-17T14:54:05.788Z,32.13
2022-12-17T14:56:32.553Z,27.38
2022-12-17T14:58:59.190Z,26.67
2022-12-17T15:01:26.105Z,27.10
2022-12-17T15:03:52.963Z,24.00
2022-12-17T15:06:20.457Z,31.10
2022-12-17T15:08:51.336Z,30.13
2022-12-17T15:11:23.139Z,29.55
2022-12-17T15:13:54.595Z,28.60
2022-12-17T15:16:22.926Z,29.00
2022-12-17T15:18:49.520Z,24.98
2022-12-17T15:21:18.327Z,27.73
2022-12-17T15:23:46.541Z,28.23
2022-12-17T15:26:14.737Z,24.43
2022-12-17T15:28:41.425Z,21.00
2022-12-17T15:31:09.375Z,27.42
2022-12-17T15:33:36.060Z,25.95
2022-12-17T15:36:02.895Z,22.92
2022-12-17T15:38:29.573Z,30.00
2022-12-17T15:40:56.191Z,24.65
2022-12-17T15:43:24.203Z,25.10
2022-12-17T15:45:52.458Z,25.45
2022-12-17T15:48:20.631Z,19.65
2022-12-17T15:50:47.686Z,23.63
2022-12-17T15:53:14.663Z,21.30
2022-12-17T15:55:41.477Z,24.52
2022-12-17T15:58:08.825Z,23.73
2022-12-17T16:00:36.877Z,31.40
2022-12-17T16:03:04.010Z,27.63
2022-12-17T16:05:30.751Z,34.35
2022-12-17T16:07:57.483Z,28.73
2022-12-17T16:10:24.113Z,32.70
2022-12-17T16:12:50.664Z,34.72
2022-12-17T16:15:17.354Z,38.73
2022-12-17T16:17:45.299Z,34.83
2022-12-17T16:20:12.373Z,35.05
2022-12-17T16:22:39.039Z,32.53
2022-12-17T16:25:06.204Z,32.25
2022-12-17T16:27:32.940Z,35.43
2022-12-17T16:29:59.591Z,34.65
2022-12-17T16:32:27.616Z,38.13
2022-12-17T16:34:58.323Z,34.33
2022-12-17T16:37:24.970Z,36.00
2022-12-17T16:39:56.640Z,31.43
2022-12-17T16:42:26.464Z,32.42
2022-12-17T16:44:53.039Z,31.15
2022-12-17T16:47:19.640Z,30.55
2022-12-17T16:49:46.264Z,33.55
2022-12-17T16:52:14.207Z,34.97
2022-12-17T16:54:40.843Z,35.90
2022-12-17T16:57:07.436Z,36.65
2022-12-17T16:59:34.027Z,31.67
2022-12-17T17:02:00.788Z,35.22
2022-12-17T17:04:27.604Z,31.00
2022-12-17T17:06:56.883Z,36.67
2022-12-17T17:09:25.426Z,36.85
2022-12-17T17:11:55.196Z,37.83
2022-12-17T17:14:21.811Z,40.92
2022-12-17T17:16:48.614Z,40.93
2022-12-17T17:19:15.351Z,40.80
2022-12-17T17:21:42.662Z,44.65
2022-12-17T17:24:16.757Z,38.85
2022-12-17T17:26:48.511Z,34.47
2022-12-17T17:29:15.093Z,37.67
2022-12-17T17:34:28.352Z,37.35
2022-12-17T17:36:55.097Z,34.88
2022-12-17T17:39:21.662Z,34.92
2022-12-17T17:41:49.668Z,35.90
2022-12-17T17:44:16.507Z,34.08
2022-12-17T17:46:43.601Z,33.08
2022-12-17T17:49:10.465Z,32.78
2022-12-17T17:52:08.524Z,31.83
2022-12-17T17:54:25.642Z,27.97
2022-12-17T17:56:53.652Z,30.45
2022-12-17T17:59:20.481Z,32.88
2022-12-17T18:01:50.127Z,29.85
2022-12-17T18:04:18.316Z,29.48
2022-12-17T18:07:09.125Z,30.23
2022-12-17T18:09:32.652Z,25.60
2022-12-17T18:12:01.817Z,30.73
2022-12-17T18:14:28.425Z,27.83
2022-12-17T18:16:55.010Z,29.48
2022-12-17T18:19:25.176Z,25.90
2022-12-17T18:21:52.936Z,28.17
2022-12-17T18:24:21.177Z,29.90
2022-12-17T18:26:48.138Z,25.75
2022-12-17T18:29:19.068Z,30.67
2022-12-17T18:31:51.357Z,33.23
2022-12-17T18:34:21.203Z,30.33
2022-12-17T18:36:48.974Z,30.92
2022-12-17T18:39:18.138Z,27.77
2022-12-17T18:41:45.357Z,33.85
2022-12-17T18:44:13.156Z,30.43
2022-12-17T18:46:41.186Z,28.52
2022-12-17T18:49:09.587Z,27.27
2022-12-17T18:51:37.578Z,37.05
2022-12-17T18:54:05.719Z,25.35
2022-12-17T18:57:00.139Z,28.73
2022-12-17T18:59:28.547Z,31.50
2022-12-17T19:01:57.850Z,30.70
2022-12-17T19:04:26.085Z,30.02
2022-12-17T19:06:53.382Z,30.38
2022-12-17T19:09:22.029Z,30.77
2022-12-17T19:11:49.347Z,27.52
2022-12-17T19:14:15.934Z,30.27
2022-12-17T19:16:42.924Z,28.48
2022-12-17T19:19:13.425Z,29.08
2022-12-17T19:21:40.405Z,28.00
2022-12-17T19:24:08.978Z,25.38
2022-12-17T19:26:35.716Z,35.72
2022-12-17T19:29:02.686Z,32.13
2022-12-17T19:31:30.867Z,29.35
2022-12-17T19:33:59.621Z,38.43
2022-12-17T19:36:30.120Z,35.03
2022-12-17T19:38:58.857Z,36.15
2022-12-17T19:41:26.656Z,34.72
2022-12-17T19:43:54.609Z,37.45
2022-12-17T19:46:21.472Z,37.53
2022-12-17T19:48:49.573Z,46.58
2022-12-17T19:51:18.354Z,41.58
2022-12-17T19:53:47.132Z,45.03
2022-12-17T19:56:16.303Z,46.47
2022-12-17T19:58:44.421Z,45.17
2022-12-17T20:01:13.176Z,40.33
2022-12-17T20:03:41.281Z,40.30
2022-12-17T20:06:09.163Z,41.58
2022-12-17T20:08:36.064Z,40.58
2022-12-17T20:11:06.695Z,34.90
2022-12-17T20:13:33.339Z,38.13
2022-12-17T20:16:00.640Z,37.60
2022-12-17T20:18:28.440Z,32.92
2022-12-17T20:21:01.669Z,41.25
2022-12-17T20:23:28.270Z,41.93
2022-12-17T20:26:01.675Z,40.63
2022-12-17T20:28:29.759Z,40.55
2022-12-17T20:30:58.126Z,38.80
2022-12-17T20:33:24.847Z,46.17
2022-12-17T20:35:51.664Z,41.33
2022-12-17T20:38:18.275Z,39.72
2022-12-17T20:40:44.951Z,43.80
2022-12-17T20:43:11.638Z,39.92
2022-12-17T20:45:46.529Z,39.30
2022-12-17T20:48:13.229Z,45.07
2022-12-17T20:50:39.921Z,39.15
2022-12-17T20:53:06.970Z,43.55
2022-12-17T20:55:33.587Z,45.30
2022-12-17T20:58:00.443Z,41.92
2022-12-17T21:00:27.035Z,46.53
2022-12-17T21:02:55.120Z,47.20
2022-12-17T21:05:21.847Z,46.80
2022-12-17T21:07:49.784Z,36.10
2022-12-17T21:10:16.577Z,35.65
2022-12-17T21:12:43.162Z,44.57
2022-12-17T21:15:09.736Z,39.35
2022-12-17T21:17:36.417Z,40.10
2022-12-17T21:20:07.105Z,45.08
2022-12-17T21:22:37.171Z,39.78
2022-12-17T21:25:04.307Z,40.77
2022-12-17T21:27:30.935Z,43.80
2022-12-17T21:29:57.588Z,52.72
2022-12-17T21:32:28.840Z,42.38
2022-12-17T21:35:00.009Z,45.97
2022-12-17T21:37:28.041Z,44.90
2022-12-17T21:39:59.518Z,37.92
2022-12-17T21:42:26.630Z,40.88
2022-12-17T21:44:53.360Z,50.30
2022-12-17T21:47:20.326Z,38.47
2022-12-17T21:49:47.098Z,43.07
2022-12-17T21:52:13.734Z,40.22
2022-12-17T21:54:41.722Z,41.35
2022-12-17T21:57:08.300Z,44.17
2022-12-17T21:59:34.947Z,44.60
2022-12-17T22:02:01.605Z,46.80
2022-12-17T22:04:28.389Z,43.15
2022-12-17T22:07:00.398Z,45.03
2022-12-17T22:10:02.595Z,43.15
2022-12-17T22:12:20.982Z,49.78
2022-12-17T22:14:47.676Z,43.10
2022-12-17T22:17:14.329Z,50.45
2022-12-17T22:19:41.146Z,47.25
2022-12-17T22:22:07.931Z,45.63
2022-12-17T22:24:36.261Z,37.47
2022-12-17T22:27:03.418Z,46.30
2022-12-17T22:29:31.425Z,48.97
2022-12-17T22:31:58.170Z,50.15
2022-12-17T22:35:21.197Z,49.83
2022-12-17T22:41:34.509Z,39.25
2022-12-17T22:44:31.830Z,42.10
2022-12-17T22:44:42.956Z,36.42
2022-12-17T22:45:33.626Z,43.13
2022-12-17T22:48:00.238Z,45.25
2022-12-17T22:50:28.684Z,40.28
2022-12-17T22:53:09.960Z,44.77
2022-12-17T22:55:36.991Z,41.80
2022-12-17T22:58:04.321Z,34.90
2022-12-17T23:00:36.857Z,40.35
2022-12-17T23:03:03.902Z,43.15
2022-12-17T23:05:31.504Z,34.33
2022-12-17T23:07:58.455Z,37.22
2022-12-17T23:10:26.665Z,46.83
2022-12-17T23:12:54.455Z,46.40
2022-12-17T23:15:24.877Z,50.03
2022-12-17T23:17:54.800Z,54.30
2022-12-17T23:20:22.112Z,46.10
2022-12-17T23:22:48.728Z,40.80
2022-12-17T23:25:15.629Z,41.50
2022-12-17T23:27:43.021Z,38.30
2022-12-17T23:30:10.969Z,40.10
2022-12-17T23:32:37.630Z,43.40
2022-12-17T23:35:07.768Z,40.35
2022-12-17T23:37:39.515Z,38.88
2022-12-17T23:40:12.660Z,43.30
2022-12-17T23:42:39.558Z,43.67
2022-12-17T23:45:07.038Z,36.42
2022-12-17T23:47:33.668Z,45.05
2022-12-17T23:50:00.290Z,39.63
2022-12-17T23:52:28.330Z,45.28
2022-12-17T23:54:54.965Z,51.97
2022-12-17T23:57:21.664Z,40.47
2022-12-17T23:59:48.361Z,42.13
